Time;durP1;ratioP1;P1;durP2;ratioP2;P2;SDS_P1;SDS_P2;PMS_P1;PMS_P2;Temp;Humidity;BMP_temperature;BMP_pressure;BME280_temperature;BME280_humidity;BME280_pressure;Samples;Min_cycle;Max_cycle;Signal;HPM_P1;HPM_P2
2021/03/07 00:01:18;;;;;;;38.45;23.25;;;-2.40;99.90;;;;;;4143482;28;20156;-79
2021/03/07 00:03:19;;;;;;;38.63;23.10;;;-2.50;99.90;;;;;;4178397;28;20061;-79
2021/03/07 00:05:20;;;;;;;44.20;24.80;;;-2.50;99.90;;;;;;4157754;28;20035;-79
2021/03/07 00:07:21;;;;;;;45.08;24.35;;;-2.50;99.90;;;;;;4162666;28;20049;-79
2021/03/07 00:09:22;;;;;;;44.95;25.88;;;-2.40;99.90;;;;;;4194871;28;20552;-79
2021/03/07 00:11:23;;;;;;;45.50;27.23;;;-2.40;99.90;;;;;;4141998;28;20077;-79
2021/03/07 00:13:23;;;;;;;44.03;23.65;;;-2.40;99.90;;;;;;4194690;28;20517;-79
2021/03/07 00:15:24;;;;;;;41.47;25.33;;;-2.50;99.90;;;;;;4162501;28;20041;-79
2021/03/07 00:17:25;;;;;;;42.25;25.15;;;-2.50;99.90;;;;;;4163059;28;20507;-79
2021/03/07 00:19:26;;;;;;;41.80;26.15;;;-2.50;99.90;;;;;;4146298;28;20072;-80
2021/03/07 00:21:26;;;;;;;44.20;25.80;;;-2.50;99.90;;;;;;4161556;28;20046;-79
2021/03/07 00:23:27;;;;;;;42.30;24.70;;;-2.50;99.90;;;;;;4150734;28;20045;-79
2021/03/07 00:25:28;;;;;;;44.17;24.73;;;-2.50;99.90;;;;;;4143523;28;20041;-79
2021/03/07 00:27:29;;;;;;;51.13;27.25;;;-2.50;99.90;;;;;;4158273;28;20033;-79
2021/03/07 00:29:29;;;;;;;50.15;28.15;;;-2.50;99.90;;;;;;4142347;28;20065;-79
2021/03/07 00:31:30;;;;;;;56.42;28.27;;;-2.50;99.90;;;;;;4158279;28;20151;-79
2021/03/07 00:33:31;;;;;;;58.85;28.08;;;-2.50;99.90;;;;;;4159813;28;20488;-79
2021/03/07 00:35:32;;;;;;;66.18;30.13;;;-2.60;99.90;;;;;;4146953;28;20481;-79
2021/03/07 00:37:32;;;;;;;58.08;30.50;;;-2.60;99.90;;;;;;4159972;28;20033;-79
2021/03/07 00:39:33;;;;;;;51.97;28.38;;;-2.60;99.90;;;;;;4138324;28;20602;-79
2021/03/07 00:41:35;;;;;;;56.08;30.38;;;-2.70;99.90;;;;;;4164969;28;20033;-79
2021/03/07 00:43:36;;;;;;;51.08;28.65;;;-2.60;99.90;;;;;;4156914;28;20065;-79
2021/03/07 00:45:37;;;;;;;52.65;28.35;;;-2.60;99.90;;;;;;4177832;28;20057;-79
2021/03/07 00:47:39;;;;;;;51.60;28.67;;;-2.60;99.90;;;;;;4163178;28;20056;-79
2021/03/07 00:49:40;;;;;;;61.30;31.23;;;-2.70;99.90;;;;;;4161365;28;20048;-79
2021/03/07 00:51:42;;;;;;;55.58;28.75;;;-2.60;99.90;;;;;;4169222;28;20045;-79
2021/03/07 00:53:43;;;;;;;60.47;30.65;;;-2.50;99.90;;;;;;4160439;28;20488;-79
2021/03/07 00:55:44;;;;;;;54.28;32.10;;;-2.60;99.90;;;;;;4162017;28;20053;-79
2021/03/07 00:57:45;;;;;;;54.45;31.70;;;-2.60;99.90;;;;;;4163019;28;20542;-79
2021/03/07 00:59:46;;;;;;;70.30;34.00;;;-2.60;99.90;;;;;;4157629;28;20065;-79
2021/03/07 01:01:48;;;;;;;73.00;35.42;;;-2.60;99.90;;;;;;4156332;28;20551;-79
2021/03/07 01:03:50;;;;;;;69.00;36.40;;;-2.60;99.90;;;;;;4162534;28;20701;-79
2021/03/07 01:05:50;;;;;;;85.65;39.53;;;-2.70;99.90;;;;;;4146470;28;20037;-79
2021/03/07 01:07:54;;;;;;;87.57;41.03;;;-2.70;99.90;;;;;;4162132;28;20041;-79
2021/03/07 01:09:54;;;;;;;68.22;36.08;;;-2.80;99.90;;;;;;4145163;28;20077;-79
2021/03/07 01:11:55;;;;;;;69.68;36.63;;;-2.70;99.90;;;;;;4160583;28;20412;-79
2021/03/07 01:13:56;;;;;;;73.78;37.45;;;-2.80;99.90;;;;;;4162414;28;20466;-79
2021/03/07 01:15:57;;;;;;;75.18;36.55;;;-2.80;99.90;;;;;;4163654;28;20041;-80
2021/03/07 01:18:00;;;;;;;78.07;36.78;;;-2.80;99.90;;;;;;4162341;28;20042;-79
2021/03/07 01:20:17;;;;;;;62.25;32.42;;;-2.90;99.90;;;;;;4156654;28;20097;-79
2021/03/07 01:22:17;;;;;;;64.30;32.70;;;-2.90;99.90;;;;;;4161609;28;20602;-79
2021/03/07 01:24:18;;;;;;;59.58;31.85;;;-2.90;99.90;;;;;;4146061;28;20128;-79
2021/03/07 01:26:19;;;;;;;55.83;32.58;;;-2.80;99.90;;;;;;4161884;28;20086;-79
2021/03/07 01:28:20;;;;;;;61.47;33.08;;;-2.70;99.90;;;;;;4144591;28;20034;-79
2021/03/07 01:30:23;;;;;;;63.55;32.88;;;-2.70;99.90;;;;;;4119570;28;20046;-78
2021/03/07 01:32:24;;;;;;;59.17;31.83;;;-2.60;99.90;;;;;;4159722;28;20477;-79
2021/03/07 01:34:24;;;;;;;57.70;32.13;;;-2.60;99.90;;;;;;4160865;28;20447;-79
2021/03/07 01:36:25;;;;;;;56.65;30.85;;;-2.60;99.90;;;;;;4160551;28;20053;-78
2021/03/07 01:38:26;;;;;;;58.08;32.33;;;-2.60;99.90;;;;;;4165609;28;20052;-79
2021/03/07 01:40:32;;;;;;;53.63;29.50;;;-2.60;99.90;;;;;;4158318;28;20045;-79
2021/03/07 01:42:32;;;;;;;45.78;27.15;;;-2.60;99.90;;;;;;4174150;28;20128;-79
2021/03/07 01:44:36;;;;;;;52.47;28.98;;;-2.60;99.90;;;;;;4192296;28;20086;-79
2021/03/07 01:46:36;;;;;;;46.92;26.75;;;-2.60;99.90;;;;;;4177652;28;20032;-78
2021/03/07 01:48:39;;;;;;;44.22;26.30;;;-2.70;99.90;;;;;;4160419;28;20057;-79
2021/03/07 01:50:46;;;;;;;43.72;26.17;;;-2.80;99.90;;;;;;4163621;28;20075;-79
2021/03/07 01:52:49;;;;;;;44.00;25.17;;;-2.90;99.90;;;;;;4156319;28;20415;-79
2021/03/07 01:54:51;;;;;;;44.15;25.00;;;-2.90;99.90;;;;;;4178298;28;20090;-79
2021/03/07 01:56:53;;;;;;;47.33;26.35;;;-3.00;99.90;;;;;;4154842;28;20038;-79
2021/03/07 01:58:57;;;;;;;45.92;26.88;;;-3.00;99.90;;;;;;4160128;28;20038;-78
2021/03/07 02:00:59;;;;;;;48.10;28.35;;;-3.00;99.90;;;;;;4135661;28;20093;-79
2021/03/07 02:03:03;;;;;;;60.35;28.48;;;-3.00;99.90;;;;;;4160239;28;20112;-79
2021/03/07 02:05:16;;;;;;;55.90;29.13;;;-3.10;99.90;;;;;;4177990;28;20029;-79
2021/03/07 02:07:16;;;;;;;57.65;28.80;;;-3.10;99.90;;;;;;4144484;28;20408;-78
2021/03/07 02:09:18;;;;;;;60.13;30.25;;;-3.10;99.90;;;;;;4159379;28;20033;-79
2021/03/07 02:11:18;;;;;;;62.65;29.20;;;-3.10;99.90;;;;;;4163060;28;20045;-78
2021/03/07 02:13:31;;;;;;;60.40;29.70;;;-3.10;99.90;;;;;;4157215;28;20049;-78
2021/03/07 02:15:32;;;;;;;45.90;26.45;;;-3.10;99.90;;;;;;4144655;28;20168;-79
2021/03/07 02:17:34;;;;;;;57.88;27.42;;;-3.10;99.90;;;;;;4145989;28;20562;-79
2021/03/07 02:19:40;;;;;;;46.30;23.73;;;-3.10;99.90;;;;;;4143088;28;20120;-79
2021/03/07 02:21:47;;;;;;;50.75;24.10;;;-3.20;99.90;;;;;;4159922;28;20045;-79
2021/03/07 02:24:08;;;;;;;38.42;24.30;;;-3.20;99.90;;;;;;4141217;28;21919;-79
2021/03/07 02:26:09;;;;;;;46.55;24.50;;;-3.30;99.90;;;;;;4183470;28;20400;-79
2021/03/07 02:28:10;;;;;;;44.97;23.38;;;-3.30;99.90;;;;;;4141078;28;20041;-79
2021/03/07 02:30:13;;;;;;;40.63;24.20;;;-3.40;99.90;;;;;;4144319;28;20050;-78
2021/03/07 02:32:19;;;;;;;43.05;25.00;;;-3.40;99.90;;;;;;4159760;28;20038;-75
2021/03/07 02:34:37;;;;;;;47.55;23.50;;;-3.30;99.90;;;;;;4159986;28;20037;-75
2021/03/07 02:36:45;;;;;;;43.22;22.60;;;-3.30;99.90;;;;;;4160205;28;20046;-75
2021/03/07 02:38:49;;;;;;;40.42;22.20;;;-3.30;99.90;;;;;;4154380;28;20152;-75
2021/03/07 02:40:55;;;;;;;40.47;23.33;;;-3.40;99.90;;;;;;4146862;28;20117;-75
2021/03/07 02:42:58;;;;;;;35.55;22.25;;;-3.50;99.90;;;;;;4144154;28;20038;-76
2021/03/07 02:45:07;;;;;;;;;;;-3.60;99.90;;;;;;4156375;28;20168;-75
2021/03/07 02:47:07;;;;;;;45.78;23.60;;;-3.60;99.90;;;;;;4175305;28;19920;-75
2021/03/07 02:49:14;;;;;;;42.67;23.70;;;-3.70;99.90;;;;;;4164503;28;20408;-75
2021/03/07 02:51:15;;;;;;;36.00;21.88;;;-3.80;99.90;;;;;;4162079;28;20410;-74
2021/03/07 02:53:23;;;;;;;39.53;22.85;;;-3.80;99.90;;;;;;4168241;28;20087;-75
2021/03/07 02:55:30;;;;;;;35.70;21.77;;;-3.80;99.90;;;;;;4163010;28;20107;-75
2021/03/07 02:57:32;;;;;;;43.25;22.88;;;-3.90;99.90;;;;;;4150823;28;20079;-75
2021/03/07 02:59:38;;;;;;;36.42;21.40;;;-3.80;99.90;;;;;;4175048;28;20029;-75
2021/03/07 03:01:41;;;;;;;41.67;24.80;;;-3.80;99.90;;;;;;4162826;28;20076;-75
2021/03/07 03:03:49;;;;;;;45.50;26.98;;;-3.60;99.90;;;;;;4146250;28;20244;-75
2021/03/07 03:05:51;;;;;;;41.17;24.42;;;-3.50;99.90;;;;;;4158540;28;20060;-75
2021/03/07 03:07:51;;;;;;;46.35;25.33;;;-3.50;99.90;;;;;;4158096;28;20048;-75
2021/03/07 03:09:54;;;;;;;46.50;25.42;;;-3.50;99.90;;;;;;4161472;28;20412;-75
2021/03/07 03:11:57;;;;;;;49.42;25.92;;;-3.60;99.90;;;;;;4174424;28;20044;-75
2021/03/07 03:13:59;;;;;;;55.78;25.90;;;-3.60;99.90;;;;;;4151202;28;20092;-75
2021/03/07 03:16:03;;;;;;;45.05;25.13;;;-3.70;99.90;;;;;;4142179;28;20567;-75
2021/03/07 03:18:07;;;;;;;59.15;29.35;;;-3.70;99.90;;;;;;4158397;28;20055;-75
2021/03/07 03:20:15;;;;;;;50.72;28.45;;;-3.70;99.90;;;;;;4177652;28;20052;-75
2021/03/07 03:22:20;;;;;;;49.17;26.08;;;-3.70;99.90;;;;;;4162026;28;20164;-75
2021/03/07 03:24:23;;;;;;;61.95;29.33;;;-3.70;99.90;;;;;;4147489;28;20041;-75
2021/03/07 03:26:24;;;;;;;54.42;27.45;;;-3.70;99.90;;;;;;4148084;28;20077;-75
2021/03/07 03:28:25;;;;;;;44.45;24.65;;;-3.70;99.90;;;;;;4157038;28;20133;-75
2021/03/07 03:30:27;;;;;;;44.40;26.38;;;-3.70;99.90;;;;;;4137438;28;20042;-75
2021/03/07 03:32:30;;;;;;;43.65;24.02;;;-3.80;99.90;;;;;;4156078;28;20068;-76
2021/03/07 03:34:31;;;;;;;46.03;25.58;;;-3.80;99.90;;;;;;4141541;28;20050;-75
2021/03/07 03:36:34;;;;;;;50.90;24.63;;;-3.80;99.90;;;;;;4162067;28;20223;-75
2021/03/07 03:38:43;;;;;;;47.20;26.37;;;-3.90;99.90;;;;;;4163949;28;20103;-75
2021/03/07 03:40:47;;;;;;;56.20;28.48;;;-3.90;99.90;;;;;;4136406;28;20061;-75
2021/03/07 03:42:55;;;;;;;47.63;26.35;;;-3.90;99.90;;;;;;4147426;28;20130;-76
2021/03/07 03:44:59;;;;;;;38.35;24.17;;;-3.90;99.90;;;;;;4145517;28;20524;-75
2021/03/07 03:47:00;;;;;;;39.85;23.60;;;-3.90;99.90;;;;;;4143572;28;20029;-75
2021/03/07 03:49:19;;;;;;;44.13;25.52;;;-3.80;99.90;;;;;;4162848;28;20492;-75
2021/03/07 03:51:22;;;;;;;39.78;21.23;;;-3.70;99.90;;;;;;4153252;28;20496;-75
2021/03/07 03:53:24;;;;;;;40.83;24.35;;;-3.70;99.90;;;;;;4159735;28;20037;-75
2021/03/07 03:55:28;;;;;;;36.47;24.00;;;-3.70;99.90;;;;;;4163046;28;20037;-75
2021/03/07 03:57:34;;;;;;;41.90;23.02;;;-3.80;99.90;;;;;;4144319;28;20504;-75
2021/03/07 03:59:38;;;;;;;37.40;20.45;;;-3.80;99.90;;;;;;4178712;28;20045;-75
2021/03/07 04:01:40;;;;;;;33.20;21.00;;;-3.80;99.90;;;;;;4140510;28;20835;-75
2021/03/07 04:03:42;;;;;;;41.00;24.40;;;-3.90;99.90;;;;;;4158906;28;20132;-75
2021/03/07 04:05:48;;;;;;;42.78;24.25;;;-3.90;99.90;;;;;;4151130;28;20171;-75
2021/03/07 04:07:50;;;;;;;42.50;23.90;;;-3.90;99.90;;;;;;4153603;28;20041;-75
2021/03/07 04:09:55;;;;;;;41.85;24.98;;;-3.90;99.90;;;;;;4147399;28;20481;-75
2021/03/07 04:11:57;;;;;;;45.88;23.05;;;-3.90;99.90;;;;;;4144680;28;20045;-75
2021/03/07 04:13:59;;;;;;;49.38;23.40;;;-3.90;99.90;;;;;;4191354;28;21077;-75
2021/03/07 04:16:00;;;;;;;37.22;22.88;;;-4.00;99.90;;;;;;4176328;28;20056;-75
2021/03/07 04:18:02;;;;;;;34.45;20.27;;;-4.00;99.90;;;;;;4176940;28;20056;-75
2021/03/07 04:20:06;;;;;;;35.33;22.70;;;-4.00;99.90;;;;;;4171348;28;20036;-76
2021/03/07 04:22:06;;;;;;;35.05;22.55;;;-4.00;99.90;;;;;;4194046;28;20055;-75
2021/03/07 04:24:08;;;;;;;37.65;23.02;;;-4.00;99.90;;;;;;4143871;28;20057;-75
2021/03/07 04:26:11;;;;;;;39.25;23.13;;;-4.00;99.90;;;;;;4172028;28;20033;-75
2021/03/07 04:28:11;;;;;;;38.10;23.00;;;-4.00;99.90;;;;;;4173125;28;20550;-75
2021/03/07 04:30:13;;;;;;;38.05;21.80;;;-4.00;99.90;;;;;;4194272;28;20291;-75
2021/03/07 04:32:15;;;;;;;40.88;22.13;;;-4.00;99.90;;;;;;4128877;28;20053;-75
2021/03/07 04:34:15;;;;;;;37.53;23.80;;;-4.00;99.90;;;;;;4161281;28;20037;-75
2021/03/07 04:36:16;;;;;;;42.17;20.67;;;-4.00;99.90;;;;;;4147624;28;20040;-75
2021/03/07 04:38:20;;;;;;;40.78;23.00;;;-4.00;99.90;;;;;;4140133;28;20040;-76
2021/03/07 04:40:22;;;;;;;42.15;23.55;;;-4.00;99.90;;;;;;4175510;28;20049;-75
2021/03/07 04:42:23;;;;;;;40.97;21.23;;;-3.90;99.90;;;;;;4160341;28;20048;-75
2021/03/07 04:44:24;;;;;;;39.60;22.67;;;-3.80;99.90;;;;;;4160483;28;20512;-76
2021/03/07 04:46:26;;;;;;;46.53;21.50;;;-3.70;99.90;;;;;;4160133;28;20069;-75
2021/03/07 04:48:30;;;;;;;41.58;24.17;;;-3.70;99.90;;;;;;4161903;28;20558;-75
2021/03/07 04:50:30;;;;;;;40.45;23.67;;;-3.50;99.90;;;;;;4161419;28;21042;-75
2021/03/07 04:52:31;;;;;;;43.70;23.95;;;-3.40;99.90;;;;;;4172456;28;20045;-75
2021/03/07 04:54:32;;;;;;;46.70;24.92;;;-3.30;99.90;;;;;;4145258;28;20045;-75
2021/03/07 04:56:33;;;;;;;35.50;24.35;;;-3.20;99.90;;;;;;4153212;28;20041;-75
2021/03/07 04:58:35;;;;;;;45.15;25.50;;;-3.10;99.90;;;;;;4161519;28;20034;-75
2021/03/07 05:00:36;;;;;;;42.90;26.42;;;-3.00;99.90;;;;;;4162889;28;20534;-75
2021/03/07 05:02:37;;;;;;;41.08;26.70;;;-2.90;99.90;;;;;;4161375;28;20054;-75
2021/03/07 05:04:38;;;;;;;41.42;25.35;;;-2.80;99.90;;;;;;4156533;28;20067;-76
2021/03/07 05:06:40;;;;;;;42.83;26.92;;;-2.70;99.90;;;;;;4144496;28;20171;-75
2021/03/07 05:08:41;;;;;;;54.35;28.05;;;-2.70;99.90;;;;;;4150034;28;20400;-75
2021/03/07 05:10:42;;;;;;;56.20;30.70;;;-2.70;99.90;;;;;;4143849;28;20038;-75
2021/03/07 05:12:43;;;;;;;46.75;28.02;;;-2.60;99.90;;;;;;4161598;28;20037;-75
2021/03/07 05:14:44;;;;;;;53.53;27.95;;;-2.60;99.90;;;;;;4144638;28;20060;-75
2021/03/07 05:16:48;;;;;;;52.30;27.85;;;-2.50;99.90;;;;;;4174336;28;20029;-75
2021/03/07 05:18:49;;;;;;;47.92;28.33;;;-2.50;99.90;;;;;;4177769;28;20128;-75
2021/03/07 05:20:50;;;;;;;53.78;27.63;;;-2.40;99.90;;;;;;4145889;28;20038;-75
2021/03/07 05:22:52;;;;;;;46.67;25.63;;;-2.40;99.90;;;;;;4160505;28;20037;-75
2021/03/07 05:24:54;;;;;;;51.55;26.50;;;-2.30;99.90;;;;;;4163104;28;20025;-75
2021/03/07 05:26:55;;;;;;;45.72;26.13;;;-2.30;99.90;;;;;;4144573;28;20046;-75
2021/03/07 05:29:00;;;;;;;44.00;24.63;;;-2.30;99.90;;;;;;4162096;28;20495;-75
2021/03/07 05:31:01;;;;;;;45.80;23.33;;;-2.20;99.90;;;;;;4145845;28;20509;-78
2021/03/07 05:33:03;;;;;;;44.22;24.02;;;-2.20;99.90;;;;;;4194526;28;20024;-76
2021/03/07 05:35:04;;;;;;;43.97;25.40;;;-2.10;99.90;;;;;;4178057;28;20063;-76
2021/03/07 05:37:05;;;;;;;51.70;26.52;;;-2.10;99.90;;;;;;4191516;28;20041;-75
2021/03/07 05:39:06;;;;;;;41.53;22.65;;;-2.00;99.90;;;;;;4159393;28;20044;-76
2021/03/07 05:41:07;;;;;;;38.75;24.73;;;-1.90;99.90;;;;;;4135557;28;20501;-76
2021/03/07 05:43:09;;;;;;;45.00;26.15;;;-1.90;99.90;;;;;;4161070;28;20065;-75
2021/03/07 05:45:10;;;;;;;42.67;23.98;;;-1.90;99.90;;;;;;4162541;28;20030;-75
2021/03/07 05:47:11;;;;;;;44.20;23.73;;;-1.80;99.90;;;;;;4134546;28;20042;-75
2021/03/07 05:49:12;;;;;;;39.92;22.02;;;-1.80;99.90;;;;;;4173004;28;20430;-76
2021/03/07 05:51:15;;;;;;;48.80;25.52;;;-1.70;99.90;;;;;;4156359;28;20136;-75
2021/03/07 05:53:19;;;;;;;41.40;23.55;;;-1.70;99.90;;;;;;4157394;28;20091;-75
2021/03/07 05:55:21;;;;;;;46.17;26.23;;;-1.70;99.90;;;;;;4177020;28;20064;-75
2021/03/07 05:57:24;;;;;;;53.13;24.17;;;-1.70;99.90;;;;;;4160619;28;20033;-75
2021/03/07 05:59:25;;;;;;;48.53;24.75;;;-1.70;99.90;;;;;;4178899;28;20364;-75
2021/03/07 06:01:26;;;;;;;45.67;25.35;;;-1.60;99.90;;;;;;4175590;28;20446;-75
2021/03/07 06:03:27;;;;;;;47.40;26.60;;;-1.60;99.90;;;;;;4175447;28;20059;-75
2021/03/07 06:05:28;;;;;;;44.13;25.48;;;-1.60;99.90;;;;;;4167336;28;20029;-75
2021/03/07 06:07:29;;;;;;;41.97;24.83;;;-1.60;99.90;;;;;;4157282;28;20460;-75
2021/03/07 06:09:30;;;;;;;52.25;25.35;;;-1.60;99.90;;;;;;4152631;28;20511;-75
2021/03/07 06:11:32;;;;;;;39.08;23.75;;;-1.60;99.90;;;;;;4143605;28;20044;-75
2021/03/07 06:13:44;;;;;;;46.75;24.70;;;-1.50;99.90;;;;;;4160724;28;20041;-75
2021/03/07 06:15:49;;;;;;;41.05;23.80;;;-1.50;99.90;;;;;;4145364;28;20037;-75
2021/03/07 06:17:50;;;;;;;39.42;22.70;;;-1.50;99.90;;;;;;4144652;28;20042;-75
2021/03/07 06:19:59;;;;;;;37.67;22.52;;;-1.40;99.90;;;;;;4160991;28;20473;-75
2021/03/07 06:22:13;;;;;;;42.25;22.17;;;-1.40;99.90;;;;;;4154046;28;20048;-75
2021/03/07 06:24:36;;;;;;;47.42;24.20;;;-1.40;99.90;;;;;;4143932;28;20116;-75
2021/03/07 06:26:36;;;;;;;46.47;23.88;;;-1.40;99.90;;;;;;4140904;28;20061;-75
2021/03/07 06:28:38;;;;;;;41.17;23.98;;;-1.30;99.90;;;;;;4159268;28;20055;-75
2021/03/07 06:30:39;;;;;;;37.03;21.30;;;-1.30;99.90;;;;;;4160716;28;20076;-75
2021/03/07 06:32:41;;;;;;;41.45;22.80;;;-1.30;99.90;;;;;;4147536;28;20543;-75
2021/03/07 06:34:46;;;;;;;38.97;21.60;;;-1.20;99.90;;;;;;4138193;28;20061;-76
2021/03/07 06:36:47;;;;;;;36.17;22.20;;;-1.20;99.90;;;;;;4176851;28;20068;-75
2021/03/07 06:38:56;;;;;;;41.67;24.33;;;-1.10;99.90;;;;;;4160416;28;20046;-75
2021/03/07 06:41:21;;;;;;;47.63;21.42;;;-1.10;99.90;;;;;;4177356;28;20033;-75
2021/03/07 06:43:25;;;;;;;43.80;22.23;;;-1.00;99.90;;;;;;4143811;28;20103;-75
2021/03/07 06:45:40;;;;;;;38.92;22.77;;;-1.00;99.90;;;;;;4144209;28;20030;-75
2021/03/07 06:47:57;;;;;;;42.22;22.95;;;-0.90;99.90;;;;;;4140145;28;20041;-75
2021/03/07 06:50:16;;;;;;;46.50;23.50;;;-0.90;99.90;;;;;;4169395;28;20029;-75
2021/03/07 06:52:20;;;;;;;41.88;23.67;;;-0.80;99.90;;;;;;4157722;28;20026;-75
2021/03/07 06:54:21;;;;;;;47.03;24.45;;;-0.80;99.90;;;;;;4158160;28;20080;-75
2021/03/07 06:56:44;;;;;;;41.25;23.58;;;-0.70;99.90;;;;;;4184340;28;20029;-75
2021/03/07 06:59:13;;;;;;;47.72;24.58;;;-0.70;99.90;;;;;;4157334;28;20034;-75
2021/03/07 07:01:17;;;;;;;43.80;25.70;;;-0.60;99.90;;;;;;4141142;28;20092;-75
2021/03/07 07:03:18;;;;;;;45.80;26.02;;;-0.60;99.90;;;;;;4153522;28;20424;-75
2021/03/07 07:05:43;;;;;;;46.97;26.38;;;-0.50;99.90;;;;;;4159059;28;20504;-75
2021/03/07 07:07:48;;;;;;;40.33;24.63;;;-0.40;99.90;;;;;;4157663;28;20071;-75
2021/03/07 07:10:05;;;;;;;45.05;25.58;;;-0.40;99.90;;;;;;4137629;28;20034;-74
2021/03/07 07:12:18;;;;;;;42.03;25.65;;;-0.30;99.90;;;;;;4159500;28;20116;-75
2021/03/07 07:14:50;;;;;;;50.90;27.13;;;-0.20;99.90;;;;;;4159943;28;20037;-75
2021/03/07 07:16:51;;;;;;;44.80;25.58;;;-0.20;99.90;;;;;;4139725;28;20045;-75
2021/03/07 07:18:52;;;;;;;38.20;24.80;;;-0.10;99.90;;;;;;4143819;28;20556;-74
2021/03/07 07:20:54;;;;;;;43.45;24.33;;;-0.10;99.90;;;;;;4142343;28;20045;-74
2021/03/07 07:22:55;;;;;;;49.13;25.17;;;0.00;99.90;;;;;;4191718;28;20033;-74
2021/03/07 07:24:55;;;;;;;43.00;24.95;;;0.00;99.90;;;;;;4157631;28;20029;-75
2021/03/07 07:26:56;;;;;;;34.13;21.75;;;0.10;99.90;;;;;;4158840;28;20479;-75
2021/03/07 07:28:57;;;;;;;39.58;24.65;;;0.10;99.90;;;;;;4171050;28;20081;-75
2021/03/07 07:31:13;;;;;;;41.92;25.63;;;0.20;99.90;;;;;;4155814;28;20033;-75
2021/03/07 07:33:27;;;;;;;41.97;24.52;;;0.30;99.90;;;;;;4158012;28;20053;-75
2021/03/07 07:35:29;;;;;;;46.05;26.05;;;0.40;99.90;;;;;;4160061;28;20120;-75
2021/03/07 07:37:38;;;;;;;40.95;25.63;;;0.40;99.90;;;;;;4145815;28;20091;-75
2021/03/07 07:39:41;;;;;;;43.72;25.35;;;0.50;99.90;;;;;;4160480;28;20033;-76
2021/03/07 07:41:42;;;;;;;37.72;24.15;;;0.60;99.90;;;;;;4187279;28;20087;-75
2021/03/07 07:43:50;;;;;;;42.38;25.75;;;0.70;99.90;;;;;;4161812;28;20037;-75
2021/03/07 07:46:12;;;;;;;35.63;23.27;;;0.80;99.90;;;;;;4159849;28;20103;-75
2021/03/07 07:48:33;;;;;;;47.17;26.85;;;0.90;99.90;;;;;;4165715;28;20036;-76
2021/03/07 07:50:40;;;;;;;42.38;27.80;;;1.00;99.90;;;;;;4158731;28;20694;-76
2021/03/07 07:52:41;;;;;;;40.75;25.50;;;1.10;99.90;;;;;;4183112;28;20045;-76
2021/03/07 07:54:59;;;;;;;42.72;27.30;;;1.20;99.90;;;;;;4161733;28;20041;-76
2021/03/07 07:57:00;;;;;;;48.67;27.80;;;1.30;99.90;;;;;;4162120;28;20424;-76
2021/03/07 07:59:01;;;;;;;35.88;23.38;;;1.40;99.90;;;;;;4178299;28;20112;-76
2021/03/07 08:01:13;;;;;;;33.42;21.85;;;1.50;99.90;;;;;;4161013;28;20099;-77
2021/03/07 08:03:34;;;;;;;36.20;22.63;;;1.60;99.90;;;;;;4159243;28;20036;-76
2021/03/07 08:05:37;;;;;;;33.10;21.45;;;1.40;99.90;;;;;;4162076;28;20400;-75
2021/03/07 08:08:08;;;;;;;30.55;20.35;;;1.90;99.90;;;;;;4194031;28;20516;-75
2021/03/07 08:10:49;;;;;;;32.83;20.13;;;2.10;99.90;;;;;;4174741;28;20061;-76
2021/03/07 08:12:50;;;;;;;31.75;19.80;;;2.40;99.90;;;;;;4176351;28;20045;-76
2021/03/07 08:14:51;;;;;;;31.63;20.80;;;2.50;99.90;;;;;;4145157;28;20093;-76
2021/03/07 08:16:52;;;;;;;26.50;18.83;;;2.70;99.90;;;;;;4158909;28;20041;-76
2021/03/07 08:18:57;;;;;;;28.77;20.38;;;2.80;99.90;;;;;;4158122;28;20044;-76
2021/03/07 08:20:59;;;;;;;32.03;18.00;;;2.90;99.90;;;;;;4176415;28;20434;-76
2021/03/07 08:22:59;;;;;;;27.00;19.45;;;3.10;99.90;;;;;;4161007;28;20029;-76
2021/03/07 08:25:00;;;;;;;28.13;20.85;;;3.20;99.90;;;;;;4145476;28;20036;-76
2021/03/07 08:27:01;;;;;;;30.30;22.55;;;3.30;99.90;;;;;;4143610;28;20046;-77
2021/03/07 08:29:02;;;;;;;35.10;24.25;;;3.40;99.90;;;;;;4144421;28;20511;-77
2021/03/07 08:31:09;;;;;;;29.02;21.48;;;3.50;99.90;;;;;;4143617;28;20038;-77
2021/03/07 08:33:32;;;;;;;27.92;19.83;;;3.50;99.90;;;;;;4193970;28;20497;-77
2021/03/07 08:35:33;;;;;;;25.33;18.40;;;3.60;99.90;;;;;;4157430;28;20087;-78
2021/03/07 08:37:34;;;;;;;28.42;19.75;;;3.60;99.90;;;;;;4159809;28;20033;-77
2021/03/07 08:39:35;;;;;;;21.73;16.73;;;3.70;99.90;;;;;;4175823;28;20124;-77
2021/03/07 08:41:35;;;;;;;27.48;18.80;;;3.70;99.90;;;;;;4142605;28;20065;-77
2021/03/07 08:43:36;;;;;;;22.98;14.98;;;3.90;99.90;;;;;;4161506;28;20052;-77
2021/03/07 08:46:00;;;;;;;18.40;15.32;;;4.00;99.90;;;;;;4159988;28;20069;-77
2021/03/07 08:48:01;;;;;;;16.38;13.13;;;4.30;99.90;;;;;;4176124;28;20040;-76
2021/03/07 08:50:06;;;;;;;20.05;13.00;;;4.50;99.90;;;;;;4176345;28;21068;-78
2021/03/07 08:52:07;;;;;;;23.23;13.50;;;4.70;99.90;;;;;;4176320;28;20460;-78
2021/03/07 08:54:10;;;;;;;18.05;12.40;;;4.90;99.90;;;;;;4144553;28;20041;-76
2021/03/07 08:56:13;;;;;;;16.63;11.82;;;5.00;99.90;;;;;;4139997;28;20042;-75
2021/03/07 08:58:14;;;;;;;15.50;11.23;;;5.10;99.90;;;;;;4191493;28;20701;-76
2021/03/07 09:00:18;;;;;;;14.77;10.32;;;5.20;99.90;;;;;;4143995;28;20046;-76
2021/03/07 09:02:19;;;;;;;12.23;10.38;;;5.40;99.90;;;;;;4156913;28;20042;-76
2021/03/07 09:04:20;;;;;;;12.98;10.90;;;5.40;99.90;;;;;;4143133;28;20041;-76
2021/03/07 09:06:26;;;;;;;15.57;11.88;;;5.50;99.90;;;;;;4160835;28;20511;-76
2021/03/07 09:08:28;;;;;;;13.73;10.55;;;5.60;99.90;;;;;;4160171;28;20049;-76
2021/03/07 09:10:44;;;;;;;12.70;10.98;;;5.80;99.90;;;;;;4157892;28;20047;-76
2021/03/07 09:12:45;;;;;;;11.77;8.07;;;5.90;99.90;;;;;;4172590;28;20041;-77
2021/03/07 09:14:46;;;;;;;9.75;7.47;;;6.00;99.90;;;;;;4141663;28;20052;-77
2021/03/07 09:16:48;;;;;;;11.00;8.00;;;6.00;99.90;;;;;;4154080;28;20122;-77
2021/03/07 09:18:49;;;;;;;10.00;8.32;;;6.10;99.90;;;;;;4159952;28;20044;-78
2021/03/07 09:20:56;;;;;;;12.40;7.25;;;6.20;99.90;;;;;;4153775;28;20038;-77
2021/03/07 09:22:57;;;;;;;10.02;7.90;;;6.30;99.90;;;;;;4153334;28;20034;-78
2021/03/07 09:25:06;;;;;;;11.07;7.93;;;6.40;99.90;;;;;;4173939;28;20594;-78
2021/03/07 09:27:12;;;;;;;9.13;7.10;;;6.40;99.90;;;;;;4175286;28;20443;-78
2021/03/07 09:29:12;;;;;;;6.93;6.18;;;6.50;99.90;;;;;;4159067;28;20099;-79
2021/03/07 09:31:46;;;;;;;9.15;6.68;;;6.60;99.90;;;;;;4176236;28;20032;-78
2021/03/07 09:33:55;;;;;;;13.10;7.00;;;6.60;99.90;;;;;;4126104;28;20049;-76
2021/03/07 09:36:10;;;;;;;11.00;5.80;;;6.80;99.90;;;;;;4142684;28;20033;-76
2021/03/07 09:38:12;;;;;;;4.68;4.13;;;6.70;99.90;;;;;;4168759;28;20805;-76
2021/03/07 09:40:14;;;;;;;7.10;5.22;;;6.80;99.90;;;;;;4190693;28;20064;-76
2021/03/07 09:42:15;;;;;;;4.47;4.00;;;6.80;99.90;;;;;;4159455;28;20400;-79
2021/03/07 09:44:22;;;;;;;8.10;5.07;;;7.00;99.90;;;;;;4173267;28;20040;-77
2021/03/07 09:46:24;;;;;;;7.75;5.20;;;7.10;99.90;;;;;;4170408;28;20051;-76
2021/03/07 09:48:34;;;;;;;5.35;4.78;;;7.20;99.90;;;;;;4192879;28;20483;-78
2021/03/07 09:50:35;;;;;;;7.45;5.10;;;7.30;99.90;;;;;;4175401;28;20045;-74
2021/03/07 09:52:36;;;;;;;5.88;5.28;;;7.40;99.90;;;;;;4159127;28;20069;-78
2021/03/07 09:54:55;;;;;;;6.90;5.60;;;7.50;99.90;;;;;;4160351;28;20439;-77
2021/03/07 09:56:56;;;;;;;9.75;6.47;;;7.70;99.90;;;;;;4158098;28;20049;-77
2021/03/07 09:59:22;;;;;;;4.68;3.92;;;7.70;99.90;;;;;;4162045;28;20144;-78
2021/03/07 10:01:26;;;;;;;5.55;3.85;;;7.70;99.90;;;;;;4191725;28;20058;-78
2021/03/07 10:03:27;;;;;;;9.73;5.65;;;7.90;99.90;;;;;;4161787;28;20391;-77
2021/03/07 10:05:27;;;;;;;6.38;4.80;;;8.00;99.90;;;;;;4159590;28;20041;-77
2021/03/07 10:07:31;;;;;;;4.63;4.22;;;8.00;99.90;;;;;;4151546;28;20045;-78
2021/03/07 10:09:32;;;;;;;5.60;4.97;;;7.90;99.90;;;;;;4156648;28;20030;-75
2021/03/07 10:11:34;;;;;;;5.65;5.07;;;7.90;99.90;;;;;;4150991;28;20041;-74
2021/03/07 10:13:34;;;;;;;6.07;4.53;;;7.90;99.90;;;;;;4170796;28;20389;-76
2021/03/07 10:15:39;;;;;;;4.95;4.13;;;8.00;99.90;;;;;;4143547;28;20117;-75
2021/03/07 10:17:42;;;;;;;6.43;5.80;;;7.90;99.90;;;;;;4137454;28;20046;-75
2021/03/07 10:19:43;;;;;;;8.88;5.60;;;7.70;99.90;;;;;;4158116;28;20041;-75
2021/03/07 10:21:45;;;;;;;6.63;4.82;;;7.70;99.90;;;;;;4159477;28;20562;-75
2021/03/07 10:23:46;;;;;;;5.55;4.28;;;7.80;99.90;;;;;;4160642;28;20091;-75
2021/03/07 10:25:48;;;;;;;7.75;5.60;;;8.20;99.90;;;;;;4137323;28;20136;-75
2021/03/07 10:27:53;;;;;;;6.72;3.85;;;8.30;99.90;;;;;;4142453;28;20451;-75
2021/03/07 10:29:54;;;;;;;5.32;4.35;;;8.40;99.90;;;;;;4156972;28;20136;-75
2021/03/07 10:32:15;;;;;;;3.70;3.05;;;8.50;99.90;;;;;;4160583;28;20507;-75
2021/03/07 10:34:34;;;;;;;4.50;3.45;;;8.40;99.90;;;;;;4158636;28;20506;-75
2021/03/07 10:36:41;;;;;;;4.63;3.88;;;8.00;99.90;;;;;;4153719;28;20053;-75